sensor_id;sensor_type;location;lat;lon;timestamp;P1;durP1;ratioP1;P2;durP2;ratioP2
13580;SDS011;6861;46.170;7.222;2022-09-02T00:01:27;3.55;;;2.83;;
13580;SDS011;6861;46.170;7.222;2022-09-02T00:03:56;2.80;;;2.60;;
13580;SDS011;6861;46.170;7.222;2022-09-02T00:06:26;2.83;;;2.35;;
13580;SDS011;6861;46.170;7.222;2022-09-02T00:08:55;3.15;;;2.60;;
13580;SDS011;6861;46.170;7.222;2022-09-02T00:11:23;3.22;;;2.60;;
13580;SDS011;6861;46.170;7.222;2022-09-02T00:13:53;3.00;;;2.70;;
13580;SDS011;6861;46.170;7.222;2022-09-02T00:16:21;3.35;;;3.05;;
13580;SDS011;6861;46.170;7.222;2022-09-02T00:18:49;2.65;;;2.45;;
13580;SDS011;6861;46.170;7.222;2022-09-02T00:21:18;3.88;;;3.20;;
13580;SDS011;6861;46.170;7.222;2022-09-02T00:23:47;3.78;;;3.28;;
13580;SDS011;6861;46.170;7.222;2022-09-02T00:26:14;3.75;;;3.22;;
13580;SDS011;6861;46.170;7.222;2022-09-02T00:28:42;5.20;;;3.22;;
13580;SDS011;6861;46.170;7.222;2022-09-02T00:31:10;5.45;;;3.50;;
13580;SDS011;6861;46.170;7.222;2022-09-02T00:33:38;4.75;;;3.35;;
13580;SDS011;6861;46.170;7.222;2022-09-02T00:36:06;2.60;;;2.40;;
13580;SDS011;6861;46.170;7.222;2022-09-02T00:38:33;3.33;;;2.72;;
13580;SDS011;6861;46.170;7.222;2022-09-02T00:41:04;4.05;;;2.97;;
13580;SDS011;6861;46.170;7.222;2022-09-02T00:43:42;3.08;;;2.75;;
13580;SDS011;6861;46.170;7.222;2022-09-02T00:46:11;3.28;;;2.90;;
13580;SDS011;6861;46.170;7.222;2022-09-02T00:48:45;3.53;;;2.92;;
13580;SDS011;6861;46.170;7.222;2022-09-02T00:51:15;3.10;;;2.80;;
13580;SDS011;6861;46.170;7.222;2022-09-02T00:53:43;5.60;;;3.13;;
13580;SDS011;6861;46.170;7.222;2022-09-02T00:56:14;3.10;;;2.80;;
13580;SDS011;6861;46.170;7.222;2022-09-02T00:58:45;3.40;;;3.10;;
13580;SDS011;6861;46.170;7.222;2022-09-02T01:01:13;3.30;;;2.95;;
13580;SDS011;6861;46.170;7.222;2022-09-02T01:03:40;3.20;;;2.90;;
13580;SDS011;6861;46.170;7.222;2022-09-02T01:06:08;3.47;;;3.00;;
13580;SDS011;6861;46.170;7.222;2022-09-02T01:08:39;3.55;;;2.90;;
13580;SDS011;6861;46.170;7.222;2022-09-02T01:11:10;3.30;;;3.00;;
13580;SDS011;6861;46.170;7.222;2022-09-02T01:13:39;4.35;;;3.13;;
13580;SDS011;6861;46.170;7.222;2022-09-02T01:16:10;3.40;;;2.80;;
13580;SDS011;6861;46.170;7.222;2022-09-02T01:18:41;3.08;;;2.83;;
13580;SDS011;6861;46.170;7.222;2022-09-02T01:21:13;3.00;;;2.70;;
13580;SDS011;6861;46.170;7.222;2022-09-02T01:23:41;3.33;;;3.00;;
13580;SDS011;6861;46.170;7.222;2022-09-02T01:26:08;3.28;;;2.97;;
13580;SDS011;6861;46.170;7.222;2022-09-02T01:28:35;3.40;;;3.10;;
13580;SDS011;6861;46.170;7.222;2022-09-02T01:31:02;4.43;;;3.00;;
13580;SDS011;6861;46.170;7.222;2022-09-02T01:34:19;4.53;;;3.10;;
13580;SDS011;6861;46.170;7.222;2022-09-02T01:36:47;5.32;;;3.13;;
13580;SDS011;6861;46.170;7.222;2022-09-02T01:39:14;4.20;;;2.92;;
13580;SDS011;6861;46.170;7.222;2022-09-02T01:41:40;3.80;;;3.50;;
13580;SDS011;6861;46.170;7.222;2022-09-02T01:44:08;5.45;;;3.20;;
13580;SDS011;6861;46.170;7.222;2022-09-02T01:46:36;3.72;;;3.00;;
13580;SDS011;6861;46.170;7.222;2022-09-02T01:49:03;3.97;;;2.90;;
13580;SDS011;6861;46.170;7.222;2022-09-02T01:51:32;4.03;;;3.30;;
13580;SDS011;6861;46.170;7.222;2022-09-02T01:53:59;3.58;;;2.70;;
13580;SDS011;6861;46.170;7.222;2022-09-02T01:56:26;5.43;;;3.00;;
13580;SDS011;6861;46.170;7.222;2022-09-02T01:58:53;4.47;;;2.95;;
13580;SDS011;6861;46.170;7.222;2022-09-02T02:01:20;3.13;;;2.83;;
13580;SDS011;6861;46.170;7.222;2022-09-02T02:03:48;3.30;;;2.92;;
13580;SDS011;6861;46.170;7.222;2022-09-02T02:06:15;3.40;;;3.03;;
13580;SDS011;6861;46.170;7.222;2022-09-02T02:08:44;3.40;;;3.10;;
13580;SDS011;6861;46.170;7.222;2022-09-02T02:11:17;3.30;;;3.00;;
13580;SDS011;6861;46.170;7.222;2022-09-02T02:13:45;3.58;;;3.00;;
13580;SDS011;6861;46.170;7.222;2022-09-02T02:16:12;3.50;;;2.90;;
13580;SDS011;6861;46.170;7.222;2022-09-02T02:18:39;3.60;;;3.00;;
13580;SDS011;6861;46.170;7.222;2022-09-02T02:21:06;2.72;;;2.53;;
13580;SDS011;6861;46.170;7.222;2022-09-02T02:23:33;3.47;;;3.05;;
13580;SDS011;6861;46.170;7.222;2022-09-02T02:26:01;3.67;;;2.47;;
13580;SDS011;6861;46.170;7.222;2022-09-02T02:28:28;3.88;;;2.80;;
13580;SDS011;6861;46.170;7.222;2022-09-02T02:30:55;3.03;;;2.75;;
13580;SDS011;6861;46.170;7.222;2022-09-02T02:33:24;3.63;;;3.20;;
13580;SDS011;6861;46.170;7.222;2022-09-02T02:35:53;9.20;;;3.15;;
13580;SDS011;6861;46.170;7.222;2022-09-02T02:38:20;3.88;;;2.60;;
13580;SDS011;6861;46.170;7.222;2022-09-02T02:40:48;4.10;;;3.20;;
13580;SDS011;6861;46.170;7.222;2022-09-02T02:43:16;4.57;;;3.00;;
13580;SDS011;6861;46.170;7.222;2022-09-02T02:45:45;4.97;;;2.83;;
13580;SDS011;6861;46.170;7.222;2022-09-02T02:48:12;3.50;;;3.10;;
13580;SDS011;6861;46.170;7.222;2022-09-02T02:50:39;6.07;;;3.13;;
13580;SDS011;6861;46.170;7.222;2022-09-02T02:53:06;3.35;;;2.97;;
13580;SDS011;6861;46.170;7.222;2022-09-02T02:55:33;2.97;;;2.67;;
13580;SDS011;6861;46.170;7.222;2022-09-02T02:58:00;3.30;;;3.00;;
13580;SDS011;6861;46.170;7.222;2022-09-02T03:00:29;2.85;;;2.65;;
13580;SDS011;6861;46.170;7.222;2022-09-02T03:02:58;3.50;;;2.80;;
13580;SDS011;6861;46.170;7.222;2022-09-02T03:05:27;3.45;;;3.00;;
13580;SDS011;6861;46.170;7.222;2022-09-02T03:07:56;3.50;;;2.70;;
13580;SDS011;6861;46.170;7.222;2022-09-02T03:10:23;3.17;;;2.85;;
13580;SDS011;6861;46.170;7.222;2022-09-02T03:12:51;3.58;;;3.10;;
13580;SDS011;6861;46.170;7.222;2022-09-02T03:15:19;3.03;;;2.72;;
13580;SDS011;6861;46.170;7.222;2022-09-02T03:17:48;4.05;;;3.05;;
13580;SDS011;6861;46.170;7.222;2022-09-02T03:20:15;3.00;;;2.80;;
13580;SDS011;6861;46.170;7.222;2022-09-02T03:22:44;3.90;;;3.10;;
13580;SDS011;6861;46.170;7.222;2022-09-02T03:25:13;3.47;;;3.17;;
13580;SDS011;6861;46.170;7.222;2022-09-02T03:27:43;3.40;;;3.10;;
13580;SDS011;6861;46.170;7.222;2022-09-02T03:30:11;3.20;;;2.85;;
13580;SDS011;6861;46.170;7.222;2022-09-02T03:32:40;4.10;;;3.10;;
13580;SDS011;6861;46.170;7.222;2022-09-02T03:35:10;4.45;;;3.30;;
13580;SDS011;6861;46.170;7.222;2022-09-02T03:37:39;3.88;;;3.42;;
13580;SDS011;6861;46.170;7.222;2022-09-02T03:40:08;3.63;;;2.97;;
13580;SDS011;6861;46.170;7.222;2022-09-02T03:42:37;3.30;;;3.00;;
13580;SDS011;6861;46.170;7.222;2022-09-02T03:45:04;3.20;;;2.90;;
13580;SDS011;6861;46.170;7.222;2022-09-02T03:47:34;3.45;;;2.70;;
13580;SDS011;6861;46.170;7.222;2022-09-02T03:50:04;3.80;;;3.40;;
13580;SDS011;6861;46.170;7.222;2022-09-02T03:52:33;3.50;;;3.20;;
13580;SDS011;6861;46.170;7.222;2022-09-02T03:55:01;4.63;;;2.97;;
13580;SDS011;6861;46.170;7.222;2022-09-02T03:57:29;4.82;;;3.80;;
13580;SDS011;6861;46.170;7.222;2022-09-02T03:59:56;4.43;;;3.22;;
13580;SDS011;6861;46.170;7.222;2022-09-02T04:02:23;3.78;;;3.38;;
13580;SDS011;6861;46.170;7.222;2022-09-02T04:04:50;2.90;;;2.67;;
13580;SDS011;6861;46.170;7.222;2022-09-02T04:07:17;3.20;;;2.90;;
13580;SDS011;6861;46.170;7.222;2022-09-02T04:09:46;4.82;;;3.42;;
13580;SDS011;6861;46.170;7.222;2022-09-02T04:12:13;4.25;;;3.47;;
13580;SDS011;6861;46.170;7.222;2022-09-02T04:14:40;5.10;;;4.03;;
13580;SDS011;6861;46.170;7.222;2022-09-02T04:17:08;5.78;;;4.13;;
13580;SDS011;6861;46.170;7.222;2022-09-02T04:19:35;4.50;;;4.10;;
13580;SDS011;6861;46.170;7.222;2022-09-02T04:22:03;4.85;;;3.70;;
13580;SDS011;6861;46.170;7.222;2022-09-02T04:24:30;4.28;;;3.88;;
13580;SDS011;6861;46.170;7.222;2022-09-02T04:26:58;4.97;;;3.85;;
13580;SDS011;6861;46.170;7.222;2022-09-02T04:29:25;3.95;;;3.60;;
13580;SDS011;6861;46.170;7.222;2022-09-02T04:31:52;4.15;;;3.75;;
13580;SDS011;6861;46.170;7.222;2022-09-02T04:34:19;4.68;;;3.90;;
13580;SDS011;6861;46.170;7.222;2022-09-02T04:36:46;4.70;;;4.30;;
13580;SDS011;6861;46.170;7.222;2022-09-02T04:39:13;4.90;;;4.50;;
13580;SDS011;6861;46.170;7.222;2022-09-02T04:41:40;6.78;;;4.55;;
13580;SDS011;6861;46.170;7.222;2022-09-02T04:44:09;5.65;;;4.55;;
13580;SDS011;6861;46.170;7.222;2022-09-02T04:46:36;4.70;;;4.28;;
13580;SDS011;6861;46.170;7.222;2022-09-02T04:49:03;5.18;;;4.30;;
13580;SDS011;6861;46.170;7.222;2022-09-02T04:51:31;5.68;;;4.70;;
13580;SDS011;6861;46.170;7.222;2022-09-02T04:53:58;5.47;;;4.60;;
13580;SDS011;6861;46.170;7.222;2022-09-02T04:56:26;5.63;;;4.40;;
13580;SDS011;6861;46.170;7.222;2022-09-02T04:58:55;5.15;;;4.57;;
13580;SDS011;6861;46.170;7.222;2022-09-02T05:01:24;5.82;;;4.80;;
13580;SDS011;6861;46.170;7.222;2022-09-02T05:03:53;5.45;;;4.60;;
13580;SDS011;6861;46.170;7.222;2022-09-02T05:06:21;4.47;;;4.07;;
13580;SDS011;6861;46.170;7.222;2022-09-02T05:08:51;5.22;;;4.72;;
13580;SDS011;6861;46.170;7.222;2022-09-02T05:11:19;4.80;;;4.35;;
13580;SDS011;6861;46.170;7.222;2022-09-02T05:13:49;5.03;;;4.60;;
13580;SDS011;6861;46.170;7.222;2022-09-02T05:16:17;7.30;;;4.93;;
13580;SDS011;6861;46.170;7.222;2022-09-02T05:18:46;5.22;;;4.72;;
13580;SDS011;6861;46.170;7.222;2022-09-02T05:21:14;5.43;;;4.80;;
13580;SDS011;6861;46.170;7.222;2022-09-02T05:23:41;6.47;;;4.65;;
13580;SDS011;6861;46.170;7.222;2022-09-02T05:26:08;5.45;;;4.90;;
13580;SDS011;6861;46.170;7.222;2022-09-02T05:28:37;5.32;;;4.82;;
13580;SDS011;6861;46.170;7.222;2022-09-02T05:31:06;6.28;;;4.80;;
13580;SDS011;6861;46.170;7.222;2022-09-02T05:33:35;6.88;;;4.35;;
13580;SDS011;6861;46.170;7.222;2022-09-02T05:36:07;4.15;;;3.50;;
13580;SDS011;6861;46.170;7.222;2022-09-02T05:38:36;5.57;;;3.95;;
13580;SDS011;6861;46.170;7.222;2022-09-02T05:41:03;6.53;;;3.92;;
13580;SDS011;6861;46.170;7.222;2022-09-02T05:43:33;5.57;;;4.00;;
13580;SDS011;6861;46.170;7.222;2022-09-02T05:46:02;5.28;;;4.00;;
13580;SDS011;6861;46.170;7.222;2022-09-02T05:48:32;5.05;;;3.97;;
13580;SDS011;6861;46.170;7.222;2022-09-02T05:51:18;6.38;;;4.38;;
13580;SDS011;6861;46.170;7.222;2022-09-02T05:53:46;5.88;;;3.92;;
13580;SDS011;6861;46.170;7.222;2022-09-02T05:56:13;7.40;;;4.20;;
13580;SDS011;6861;46.170;7.222;2022-09-02T05:58:40;5.43;;;3.83;;
13580;SDS011;6861;46.170;7.222;2022-09-02T06:01:08;6.88;;;4.05;;
13580;SDS011;6861;46.170;7.222;2022-09-02T06:03:36;5.88;;;4.40;;
13580;SDS011;6861;46.170;7.222;2022-09-02T06:06:03;5.07;;;4.40;;
13580;SDS011;6861;46.170;7.222;2022-09-02T06:08:32;6.05;;;4.22;;
13580;SDS011;6861;46.170;7.222;2022-09-02T06:10:59;8.10;;;4.57;;
13580;SDS011;6861;46.170;7.222;2022-09-02T06:13:27;5.00;;;4.28;;
13580;SDS011;6861;46.170;7.222;2022-09-02T06:15:55;5.25;;;4.25;;
13580;SDS011;6861;46.170;7.222;2022-09-02T06:18:23;7.55;;;4.80;;
13580;SDS011;6861;46.170;7.222;2022-09-02T06:20:50;8.10;;;4.93;;
13580;SDS011;6861;46.170;7.222;2022-09-02T06:23:17;7.07;;;4.80;;
13580;SDS011;6861;46.170;7.222;2022-09-02T06:25:46;6.72;;;4.82;;
13580;SDS011;6861;46.170;7.222;2022-09-02T06:28:14;9.50;;;4.78;;
13580;SDS011;6861;46.170;7.222;2022-09-02T06:30:42;6.00;;;4.65;;
13580;SDS011;6861;46.170;7.222;2022-09-02T06:33:11;8.85;;;5.03;;
13580;SDS011;6861;46.170;7.222;2022-09-02T06:35:39;5.90;;;4.63;;
13580;SDS011;6861;46.170;7.222;2022-09-02T06:38:08;7.55;;;5.00;;
13580;SDS011;6861;46.170;7.222;2022-09-02T06:40:36;6.05;;;5.15;;
13580;SDS011;6861;46.170;7.222;2022-09-02T06:43:12;8.57;;;4.60;;
13580;SDS011;6861;46.170;7.222;2022-09-02T06:45:39;8.25;;;4.82;;
13580;SDS011;6861;46.170;7.222;2022-09-02T06:48:07;8.57;;;4.40;;
13580;SDS011;6861;46.170;7.222;2022-09-02T06:50:37;5.70;;;4.28;;
13580;SDS011;6861;46.170;7.222;2022-09-02T06:53:05;5.15;;;4.60;;
13580;SDS011;6861;46.170;7.222;2022-09-02T06:55:33;11.18;;;5.43;;
13580;SDS011;6861;46.170;7.222;2022-09-02T06:58:02;10.25;;;5.28;;
13580;SDS011;6861;46.170;7.222;2022-09-02T07:00:31;8.55;;;5.60;;
13580;SDS011;6861;46.170;7.222;2022-09-02T07:02:59;6.13;;;4.95;;
13580;SDS011;6861;46.170;7.222;2022-09-02T07:05:44;10.48;;;5.50;;
13580;SDS011;6861;46.170;7.222;2022-09-02T07:08:11;5.82;;;5.00;;
13580;SDS011;6861;46.170;7.222;2022-09-02T07:10:38;5.85;;;4.97;;
13580;SDS011;6861;46.170;7.222;2022-09-02T07:13:06;6.60;;;5.45;;
13580;SDS011;6861;46.170;7.222;2022-09-02T07:15:34;8.90;;;5.30;;
13580;SDS011;6861;46.170;7.222;2022-09-02T07:18:01;9.00;;;5.22;;
13580;SDS011;6861;46.170;7.222;2022-09-02T07:20:29;7.50;;;5.03;;
13580;SDS011;6861;46.170;7.222;2022-09-02T07:22:56;4.55;;;3.83;;
13580;SDS011;6861;46.170;7.222;2022-09-02T07:25:23;4.40;;;3.13;;
13580;SDS011;6861;46.170;7.222;2022-09-02T07:27:52;4.32;;;3.03;;
13580;SDS011;6861;46.170;7.222;2022-09-02T07:30:19;3.88;;;2.92;;
13580;SDS011;6861;46.170;7.222;2022-09-02T07:32:48;5.57;;;3.90;;
13580;SDS011;6861;46.170;7.222;2022-09-02T07:35:15;4.93;;;3.70;;
13580;SDS011;6861;46.170;7.222;2022-09-02T07:37:41;4.20;;;3.40;;
13580;SDS011;6861;46.170;7.222;2022-09-02T07:40:09;5.88;;;3.58;;
13580;SDS011;6861;46.170;7.222;2022-09-02T07:42:38;5.78;;;2.97;;
13580;SDS011;6861;46.170;7.222;2022-09-02T07:45:05;4.60;;;2.80;;
13580;SDS011;6861;46.170;7.222;2022-09-02T07:47:33;4.07;;;2.95;;
13580;SDS011;6861;46.170;7.222;2022-09-02T07:50:01;2.92;;;2.55;;
13580;SDS011;6861;46.170;7.222;2022-09-02T07:52:29;3.75;;;2.70;;
13580;SDS011;6861;46.170;7.222;2022-09-02T07:54:56;3.28;;;2.90;;
13580;SDS011;6861;46.170;7.222;2022-09-02T07:57:23;3.78;;;2.78;;
13580;SDS011;6861;46.170;7.222;2022-09-02T07:59:50;2.60;;;2.40;;
13580;SDS011;6861;46.170;7.222;2022-09-02T08:02:17;2.70;;;2.42;;
13580;SDS011;6861;46.170;7.222;2022-09-02T08:04:44;2.42;;;2.13;;
13580;SDS011;6861;46.170;7.222;2022-09-02T08:07:12;4.15;;;2.60;;
13580;SDS011;6861;46.170;7.222;2022-09-02T08:09:41;2.70;;;2.30;;
13580;SDS011;6861;46.170;7.222;2022-09-02T08:12:07;3.40;;;2.40;;
13580;SDS011;6861;46.170;7.222;2022-09-02T08:14:34;2.55;;;2.35;;
13580;SDS011;6861;46.170;7.222;2022-09-02T08:17:01;2.92;;;2.40;;
13580;SDS011;6861;46.170;7.222;2022-09-02T08:19:28;2.83;;;2.15;;
13580;SDS011;6861;46.170;7.222;2022-09-02T08:22:00;2.58;;;2.15;;
13580;SDS011;6861;46.170;7.222;2022-09-02T08:24:30;3.28;;;2.47;;
13580;SDS011;6861;46.170;7.222;2022-09-02T08:26:57;2.40;;;2.17;;
13580;SDS011;6861;46.170;7.222;2022-09-02T08:29:25;2.33;;;2.13;;
13580;SDS011;6861;46.170;7.222;2022-09-02T08:31:51;3.13;;;2.17;;
13580;SDS011;6861;46.170;7.222;2022-09-02T08:34:18;2.40;;;2.20;;
13580;SDS011;6861;46.170;7.222;2022-09-02T08:36:45;2.72;;;2.13;;
13580;SDS011;6861;46.170;7.222;2022-09-02T08:39:12;2.50;;;2.30;;
13580;SDS011;6861;46.170;7.222;2022-09-02T08:41:43;2.85;;;2.25;;
13580;SDS011;6861;46.170;7.222;2022-09-02T08:44:20;2.85;;;2.40;;
13580;SDS011;6861;46.170;7.222;2022-09-02T08:46:49;3.03;;;2.45;;
13580;SDS011;6861;46.170;7.222;2022-09-02T08:49:21;2.60;;;2.10;;
13580;SDS011;6861;46.170;7.222;2022-09-02T08:51:54;2.97;;;2.50;;
13580;SDS011;6861;46.170;7.222;2022-09-02T08:54:25;2.55;;;2.15;;
13580;SDS011;6861;46.170;7.222;2022-09-02T08:57:00;3.08;;;2.08;;
13580;SDS011;6861;46.170;7.222;2022-09-02T08:59:27;2.45;;;2.22;;
13580;SDS011;6861;46.170;7.222;2022-09-02T09:01:57;4.70;;;2.40;;
13580;SDS011;6861;46.170;7.222;2022-09-02T09:04:35;2.35;;;2.03;;
13580;SDS011;6861;46.170;7.222;2022-09-02T09:07:20;3.22;;;2.08;;
13580;SDS011;6861;46.170;7.222;2022-09-02T09:12:50;2.65;;;2.40;;
13580;SDS011;6861;46.170;7.222;2022-09-02T09:15:29;2.33;;;2.13;;
13580;SDS011;6861;46.170;7.222;2022-09-02T09:18:03;3.00;;;2.20;;
13580;SDS011;6861;46.170;7.222;2022-09-02T09:20:34;2.65;;;2.10;;
13580;SDS011;6861;46.170;7.222;2022-09-02T09:23:08;4.55;;;2.30;;
13580;SDS011;6861;46.170;7.222;2022-09-02T09:25:46;4.50;;;2.30;;
13580;SDS011;6861;46.170;7.222;2022-09-02T09:28:17;2.22;;;1.90;;
13580;SDS011;6861;46.170;7.222;2022-09-02T09:30:44;2.50;;;2.30;;
13580;SDS011;6861;46.170;7.222;2022-09-02T09:33:12;2.78;;;2.30;;
13580;SDS011;6861;46.170;7.222;2022-09-02T09:35:48;2.65;;;2.38;;
13580;SDS011;6861;46.170;7.222;2022-09-02T09:38:26;3.28;;;2.40;;
13580;SDS011;6861;46.170;7.222;2022-09-02T09:43:43;2.50;;;2.30;;
13580;SDS011;6861;46.170;7.222;2022-09-02T09:46:22;3.58;;;2.20;;
13580;SDS011;6861;46.170;7.222;2022-09-02T09:48:52;3.20;;;2.28;;
13580;SDS011;6861;46.170;7.222;2022-09-02T09:51:19;2.42;;;2.05;;
13580;SDS011;6861;46.170;7.222;2022-09-02T09:53:46;2.33;;;2.13;;
13580;SDS011;6861;46.170;7.222;2022-09-02T09:56:23;1.80;;;1.70;;
13580;SDS011;6861;46.170;7.222;2022-09-02T09:58:56;2.40;;;2.20;;
13580;SDS011;6861;46.170;7.222;2022-09-02T10:01:23;2.20;;;2.00;;
13580;SDS011;6861;46.170;7.222;2022-09-02T10:03:54;2.10;;;2.00;;
13580;SDS011;6861;46.170;7.222;2022-09-02T10:06:23;2.50;;;2.30;;
13580;SDS011;6861;46.170;7.222;2022-09-02T10:09:02;2.20;;;2.00;;
13580;SDS011;6861;46.170;7.222;2022-09-02T10:11:31;2.60;;;2.40;;
13580;SDS011;6861;46.170;7.222;2022-09-02T10:14:01;2.30;;;2.10;;
13580;SDS011;6861;46.170;7.222;2022-09-02T10:16:37;2.13;;;1.92;;
13580;SDS011;6861;46.170;7.222;2022-09-02T10:19:13;2.30;;;2.10;;
13580;SDS011;6861;46.170;7.222;2022-09-02T10:24:45;3.40;;;2.13;;
13580;SDS011;6861;46.170;7.222;2022-09-02T10:27:27;2.00;;;1.90;;
13580;SDS011;6861;46.170;7.222;2022-09-02T10:30:04;2.83;;;2.10;;
13580;SDS011;6861;46.170;7.222;2022-09-02T10:32:40;2.20;;;2.00;;
13580;SDS011;6861;46.170;7.222;2022-09-02T10:35:24;2.47;;;2.15;;
13580;SDS011;6861;46.170;7.222;2022-09-02T10:38:01;2.45;;;1.90;;
13580;SDS011;6861;46.170;7.222;2022-09-02T10:40:37;3.25;;;2.28;;
13580;SDS011;6861;46.170;7.222;2022-09-02T10:43:17;2.25;;;1.92;;
13580;SDS011;6861;46.170;7.222;2022-09-02T10:45:58;2.00;;;1.90;;
13580;SDS011;6861;46.170;7.222;2022-09-02T10:48:32;1.83;;;1.73;;
13580;SDS011;6861;46.170;7.222;2022-09-02T10:51:12;2.20;;;2.00;;
13580;SDS011;6861;46.170;7.222;2022-09-02T10:53:51;2.40;;;2.20;;
13580;SDS011;6861;46.170;7.222;2022-09-02T10:56:30;4.28;;;1.92;;
13580;SDS011;6861;46.170;7.222;2022-09-02T10:59:04;2.60;;;2.05;;
13580;SDS011;6861;46.170;7.222;2022-09-02T11:01:38;2.70;;;2.00;;
13580;SDS011;6861;46.170;7.222;2022-09-02T11:04:12;2.28;;;2.08;;
13580;SDS011;6861;46.170;7.222;2022-09-02T11:06:44;2.08;;;1.85;;
13580;SDS011;6861;46.170;7.222;2022-09-02T11:09:19;2.03;;;1.88;;
13580;SDS011;6861;46.170;7.222;2022-09-02T11:11:55;2.50;;;2.13;;
13580;SDS011;6861;46.170;7.222;2022-09-02T11:14:26;2.78;;;1.90;;
13580;SDS011;6861;46.170;7.222;2022-09-02T11:17:01;4.63;;;2.17;;
13580;SDS011;6861;46.170;7.222;2022-09-02T11:19:34;2.60;;;2.17;;
13580;SDS011;6861;46.170;7.222;2022-09-02T11:22:10;2.00;;;1.80;;
13580;SDS011;6861;46.170;7.222;2022-09-02T11:24:49;1.90;;;1.80;;
13580;SDS011;6861;46.170;7.222;2022-09-02T11:27:23;2.42;;;2.00;;
13580;SDS011;6861;46.170;7.222;2022-09-02T11:30:00;2.97;;;2.15;;
13580;SDS011;6861;46.170;7.222;2022-09-02T11:32:33;2.83;;;2.53;;
13580;SDS011;6861;46.170;7.222;2022-09-02T11:35:06;5.28;;;2.47;;
13580;SDS011;6861;46.170;7.222;2022-09-02T11:37:38;3.30;;;2.40;;
13580;SDS011;6861;46.170;7.222;2022-09-02T11:40:11;3.95;;;2.20;;
13580;SDS011;6861;46.170;7.222;2022-09-02T11:42:49;2.58;;;2.38;;
13580;SDS011;6861;46.170;7.222;2022-09-02T11:45:40;2.55;;;2.20;;
13580;SDS011;6861;46.170;7.222;2022-09-02T11:48:49;3.10;;;2.33;;
13580;SDS011;6861;46.170;7.222;2022-09-02T11:54:33;4.53;;;2.50;;
13580;SDS011;6861;46.170;7.222;2022-09-02T11:57:04;3.85;;;2.38;;
13580;SDS011;6861;46.170;7.222;2022-09-02T12:02:31;4.68;;;2.70;;
13580;SDS011;6861;46.170;7.222;2022-09-02T12:14:02;7.28;;;2.63;;
13580;SDS011;6861;46.170;7.222;2022-09-02T12:16:35;4.15;;;2.70;;
13580;SDS011;6861;46.170;7.222;2022-09-02T12:19:16;8.02;;;2.97;;
13580;SDS011;6861;46.170;7.222;2022-09-02T12:24:57;8.98;;;2.65;;
13580;SDS011;6861;46.170;7.222;2022-09-02T12:27:29;7.82;;;2.33;;
13580;SDS011;6861;46.170;7.222;2022-09-02T12:30:01;6.03;;;2.10;;
13580;SDS011;6861;46.170;7.222;2022-09-02T12:43:59;2.63;;;1.92;;
13580;SDS011;6861;46.170;7.222;2022-09-02T12:49:36;2.38;;;2.17;;
13580;SDS011;6861;46.170;7.222;2022-09-02T12:52:09;2.10;;;1.90;;
13580;SDS011;6861;46.170;7.222;2022-09-02T12:54:40;3.33;;;2.05;;
13580;SDS011;6861;46.170;7.222;2022-09-02T12:57:13;2.20;;;2.00;;
13580;SDS011;6861;46.170;7.222;2022-09-02T12:59:43;1.70;;;1.60;;
13580;SDS011;6861;46.170;7.222;2022-09-02T13:05:12;2.55;;;1.92;;
13580;SDS011;6861;46.170;7.222;2022-09-02T13:17:20;2.78;;;1.50;;
13580;SDS011;6861;46.170;7.222;2022-09-02T13:22:57;2.35;;;1.15;;
13580;SDS011;6861;46.170;7.222;2022-09-02T13:25:47;2.13;;;1.30;;
13580;SDS011;6861;46.170;7.222;2022-09-02T13:31:41;2.90;;;1.30;;
13580;SDS011;6861;46.170;7.222;2022-09-02T13:34:24;2.28;;;1.20;;
13580;SDS011;6861;46.170;7.222;2022-09-02T13:36:52;2.65;;;1.25;;
13580;SDS011;6861;46.170;7.222;2022-09-02T13:39:19;2.63;;;1.20;;
13580;SDS011;6861;46.170;7.222;2022-09-02T13:41:50;1.60;;;1.40;;
13580;SDS011;6861;46.170;7.222;2022-09-02T13:44:21;3.75;;;1.30;;
13580;SDS011;6861;46.170;7.222;2022-09-02T13:46:51;1.10;;;1.00;;
13580;SDS011;6861;46.170;7.222;2022-09-02T13:49:21;2.25;;;1.30;;
13580;SDS011;6861;46.170;7.222;2022-09-02T13:51:51;1.23;;;1.10;;
13580;SDS011;6861;46.170;7.222;2022-09-02T13:54:25;3.08;;;1.50;;
13580;SDS011;6861;46.170;7.222;2022-09-02T13:56:58;3.28;;;1.60;;
13580;SDS011;6861;46.170;7.222;2022-09-02T13:59:35;1.52;;;1.40;;
13580;SDS011;6861;46.170;7.222;2022-09-02T14:02:18;1.55;;;1.30;;
13580;SDS011;6861;46.170;7.222;2022-09-02T14:04:47;3.25;;;1.30;;
13580;SDS011;6861;46.170;7.222;2022-09-02T14:07:24;5.70;;;1.33;;
13580;SDS011;6861;46.170;7.222;2022-09-02T14:09:54;1.50;;;1.25;;
13580;SDS011;6861;46.170;7.222;2022-09-02T14:12:22;5.93;;;1.70;;
13580;SDS011;6861;46.170;7.222;2022-09-02T14:14:52;3.03;;;1.40;;
13580;SDS011;6861;46.170;7.222;2022-09-02T14:17:22;3.58;;;1.48;;
13580;SDS011;6861;46.170;7.222;2022-09-02T14:19:50;2.92;;;1.27;;
13580;SDS011;6861;46.170;7.222;2022-09-02T14:22:32;3.22;;;1.20;;
13580;SDS011;6861;46.170;7.222;2022-09-02T14:25:06;1.77;;;1.17;;
13580;SDS011;6861;46.170;7.222;2022-09-02T14:27:34;1.23;;;1.13;;
13580;SDS011;6861;46.170;7.222;2022-09-02T14:30:02;1.13;;;1.00;;
13580;SDS011;6861;46.170;7.222;2022-09-02T14:32:34;1.30;;;1.20;;
13580;SDS011;6861;46.170;7.222;2022-09-02T14:35:18;2.25;;;1.40;;
13580;SDS011;6861;46.170;7.222;2022-09-02T14:37:47;1.98;;;1.42;;
13580;SDS011;6861;46.170;7.222;2022-09-02T14:40:30;1.58;;;1.30;;
13580;SDS011;6861;46.170;7.222;2022-09-02T14:42:58;2.55;;;1.40;;
13580;SDS011;6861;46.170;7.222;2022-09-02T14:45:26;4.43;;;1.45;;
13580;SDS011;6861;46.170;7.222;2022-09-02T14:47:57;2.78;;;1.40;;
13580;SDS011;6861;46.170;7.222;2022-09-02T14:50:27;2.80;;;1.48;;
13580;SDS011;6861;46.170;7.222;2022-09-02T14:52:58;3.72;;;1.50;;
13580;SDS011;6861;46.170;7.222;2022-09-02T14:55:45;2.92;;;1.55;;
13580;SDS011;6861;46.170;7.222;2022-09-02T14:58:14;1.58;;;1.20;;
13580;SDS011;6861;46.170;7.222;2022-09-02T15:00:43;3.22;;;1.50;;
13580;SDS011;6861;46.170;7.222;2022-09-02T15:03:13;2.25;;;1.60;;
13580;SDS011;6861;46.170;7.222;2022-09-02T15:05:41;2.55;;;1.30;;
13580;SDS011;6861;46.170;7.222;2022-09-02T15:08:08;1.60;;;1.40;;
13580;SDS011;6861;46.170;7.222;2022-09-02T15:10:36;1.83;;;1.40;;
13580;SDS011;6861;46.170;7.222;2022-09-02T15:13:05;2.17;;;1.50;;
13580;SDS011;6861;46.170;7.222;2022-09-02T15:15:33;1.98;;;1.30;;
13580;SDS011;6861;46.170;7.222;2022-09-02T15:18:00;1.75;;;1.50;;
13580;SDS011;6861;46.170;7.222;2022-09-02T15:20:28;1.50;;;1.30;;
13580;SDS011;6861;46.170;7.222;2022-09-02T15:22:55;2.05;;;1.50;;
13580;SDS011;6861;46.170;7.222;2022-09-02T15:25:23;1.48;;;1.30;;
13580;SDS011;6861;46.170;7.222;2022-09-02T15:27:50;2.20;;;1.58;;
13580;SDS011;6861;46.170;7.222;2022-09-02T15:30:17;1.60;;;1.33;;
13580;SDS011;6861;46.170;7.222;2022-09-02T15:32:44;2.05;;;1.40;;
13580;SDS011;6861;46.170;7.222;2022-09-02T15:35:11;1.40;;;1.30;;
13580;SDS011;6861;46.170;7.222;2022-09-02T15:37:39;1.77;;;1.30;;
13580;SDS011;6861;46.170;7.222;2022-09-02T15:40:07;3.47;;;1.60;;
13580;SDS011;6861;46.170;7.222;2022-09-02T15:42:35;2.40;;;1.45;;
13580;SDS011;6861;46.170;7.222;2022-09-02T15:45:03;1.63;;;1.40;;
13580;SDS011;6861;46.170;7.222;2022-09-02T15:47:33;2.05;;;1.50;;
13580;SDS011;6861;46.170;7.222;2022-09-02T15:50:01;3.20;;;1.40;;
13580;SDS011;6861;46.170;7.222;2022-09-02T15:52:28;1.85;;;1.70;;
13580;SDS011;6861;46.170;7.222;2022-09-02T15:54:56;1.88;;;1.48;;
13580;SDS011;6861;46.170;7.222;2022-09-02T15:57:24;1.90;;;1.50;;
13580;SDS011;6861;46.170;7.222;2022-09-02T15:59:51;2.80;;;1.45;;
13580;SDS011;6861;46.170;7.222;2022-09-02T16:02:18;2.70;;;1.70;;
13580;SDS011;6861;46.170;7.222;2022-09-02T16:04:44;2.75;;;1.30;;
13580;SDS011;6861;46.170;7.222;2022-09-02T16:07:11;2.67;;;1.45;;
13580;SDS011;6861;46.170;7.222;2022-09-02T16:09:38;1.98;;;1.58;;
13580;SDS011;6861;46.170;7.222;2022-09-02T16:12:07;2.38;;;1.60;;
13580;SDS011;6861;46.170;7.222;2022-09-02T16:14:34;2.63;;;1.80;;
13580;SDS011;6861;46.170;7.222;2022-09-02T16:17:01;3.00;;;1.70;;
13580;SDS011;6861;46.170;7.222;2022-09-02T16:19:28;1.75;;;1.65;;